Bhera Weather



Bhera's Current Weather

Temprature 19.149o clear sky

clear sky

Rain: 0 %

Min Temprature19.149o
Max Temprature19.149o
Humidity67
Wind Speed1.31 m/h
Sun Rise06:43:02
Sun Set18:00:49
Current Time: 23-Feb-2019 15:31:16
Lat/Lon: 32.48, 72.91




Bhera's Geo Location




Bhera's Weather Forecast

Time Overall Temp Min Temp Max Temp Humidity Wind Speed Rain
23-Feb-2019 (Sat)
17:00:00 clear sky 18.400 18.400 19.149 67 1.31 m/h 0 %
20:00:00 clear sky 11.320 11.320 11.884 70 1.17 m/h 0 %
23:00:00 clear sky 8.340 8.340 8.715 80 0.82 m/h 0 %
24-Feb-2019 (Sun)
02:00:00 clear sky 6.900 6.900 7.085 84 1.36 m/h 0 %
05:00:00 clear sky 6.067 6.067 6.067 84 1.51 m/h 0 %
08:00:00 clear sky 8.328 8.328 8.328 80 1.96 m/h 0 %
11:00:00 clear sky 17.224 17.224 17.224 83 2.01 m/h 0 %
14:00:00 clear sky 20.006 20.006 20.006 77 1.17 m/h 0 %
17:00:00 few clouds 19.296 19.296 19.296 65 0.95 m/h 0 %
20:00:00 few clouds 12.418 12.418 12.418 75 0.66 m/h 0 %
23:00:00 scattered clouds 9.861 9.861 9.861 84 0.71 m/h 0 %
25-Feb-2019 (Mon)
02:00:00 broken clouds 9.080 9.080 9.080 87 1.77 m/h 0 %
05:00:00 light rain 8.952 8.952 8.952 89 2.16 m/h 1 %
08:00:00 light rain 9.970 9.970 9.970 90 2.42 m/h 3 %
11:00:00 light rain 13.347 13.347 13.347 91 2.06 m/h 2 %
14:00:00 broken clouds 14.473 14.473 14.473 83 2.67 m/h 0 %
17:00:00 broken clouds 13.962 13.962 13.962 75 2.41 m/h 0 %
20:00:00 clear sky 10.173 10.173 10.173 83 2.56 m/h 0 %
23:00:00 light rain 9.242 9.242 9.242 94 3.46 m/h 6 %
26-Feb-2019 (Tue)
02:00:00 light rain 9.201 9.201 9.201 98 2.86 m/h 15 %
05:00:00 light rain 9.672 9.672 9.672 99 2.11 m/h 23 %
08:00:00 light rain 10.482 10.482 10.482 98 2.62 m/h 26 %
11:00:00 light rain 12.967 12.967 12.967 96 2.02 m/h 2 %
14:00:00 light rain 14.796 14.796 14.796 87 2.76 m/h 1 %
17:00:00 light rain 14.339 14.339 14.339 80 2.86 m/h 11 %
20:00:00 light rain 12.361 12.361 12.361 90 1.52 m/h 12 %
23:00:00 light rain 11.248 11.248 11.248 98 1.07 m/h 15 %
27-Feb-2019 (Wed)
02:00:00 light rain 9.806 9.806 9.806 99 1.46 m/h 8 %
05:00:00 light rain 6.794 6.794 6.794 97 0.95 m/h 2 %
08:00:00 light rain 8.690 8.690 8.690 98 1.77 m/h 4 %
11:00:00 light rain 12.845 12.845 12.845 100 2.16 m/h 8 %
14:00:00 few clouds 15.811 15.811 15.811 91 2.4 m/h 0 %
17:00:00 scattered clouds 14.398 14.398 14.398 75 4.01 m/h 0 %
20:00:00 few clouds 11.642 11.642 11.642 83 3.42 m/h 0 %
23:00:00 scattered clouds 8.691 8.691 8.691 94 2.47 m/h 0 %
28-Feb-2019 (Thu)
02:00:00 broken clouds 8.291 8.291 8.291 94 2.56 m/h 0 %
05:00:00 broken clouds 8.063 8.063 8.063 94 1.96 m/h 0 %
08:00:00 overcast clouds 8.740 8.740 8.740 90 1.96 m/h 0 %
11:00:00 overcast clouds 13.722 13.722 13.722 82 1.91 m/h 0 %
14:00:00 broken clouds 15.704 15.704 15.704 85 1.87 m/h 0 %

Famous Cities (60)